sensor_id;sensor_type;location;lat;lon;timestamp;temperature;humidity
63371;DHT22;49504;48.336;14.472;2023-05-18T05:34:18;24.20;51.50
63371;DHT22;49504;48.336;14.472;2023-05-18T05:37:40;24.20;51.40
63371;DHT22;49504;48.336;14.472;2023-05-18T05:41:02;24.20;51.30
63371;DHT22;49504;48.336;14.472;2023-05-18T05:44:23;24.20;51.50
63371;DHT22;49504;48.336;14.472;2023-05-18T05:47:45;24.20;51.70
63371;DHT22;49504;48.336;14.472;2023-05-18T05:51:09;24.20;51.80
63371;DHT22;49504;48.336;14.472;2023-05-18T05:54:30;24.20;51.60
63371;DHT22;49504;48.336;14.472;2023-05-18T05:57:51;24.20;51.50
63371;DHT22;49504;48.336;14.472;2023-05-18T06:01:13;24.20;51.50
63371;DHT22;49504;48.336;14.472;2023-05-18T06:06:38;24.10;51.10
63371;DHT22;49504;48.336;14.472;2023-05-18T06:10:00;24.10;51.20
63371;DHT22;49504;48.336;14.472;2023-05-18T06:16:02;24.10;50.90
63371;DHT22;49504;48.336;14.472;2023-05-18T06:19:24;24.10;51.40
63371;DHT22;49504;48.336;14.472;2023-05-18T06:24:13;24.10;51.00
63371;DHT22;49504;48.336;14.472;2023-05-18T06:27:55;24.10;51.60
63371;DHT22;49504;48.336;14.472;2023-05-18T06:31:31;24.10;51.70
63371;DHT22;49504;48.336;14.472;2023-05-18T06:35:08;24.10;51.70
63371;DHT22;49504;48.336;14.472;2023-05-18T06:38:29;24.10;51.80
63371;DHT22;49504;48.336;14.472;2023-05-18T06:45:18;24.10;51.20
63371;DHT22;49504;48.336;14.472;2023-05-18T06:48:44;24.10;51.80
63371;DHT22;49504;48.336;14.472;2023-05-18T06:52:06;24.10;51.80
63371;DHT22;49504;48.336;14.472;2023-05-18T06:55:27;24.10;51.90
63371;DHT22;49504;48.336;14.472;2023-05-18T06:58:48;24.10;51.90
63371;DHT22;49504;48.336;14.472;2023-05-18T07:02:11;24.10;51.90
63371;DHT22;49504;48.336;14.472;2023-05-18T07:05:33;24.10;51.70
63371;DHT22;49504;48.336;14.472;2023-05-18T07:08:55;24.00;52.10
63371;DHT22;49504;48.336;14.472;2023-05-18T07:12:16;24.10;51.90
63371;DHT22;49504;48.336;14.472;2023-05-18T07:15:37;24.10;52.00
63371;DHT22;49504;48.336;14.472;2023-05-18T07:19:00;24.10;51.90
63371;DHT22;49504;48.336;14.472;2023-05-18T07:22:21;24.10;51.90
63371;DHT22;49504;48.336;14.472;2023-05-18T07:25:42;24.10;51.90
63371;DHT22;49504;48.336;14.472;2023-05-18T07:29:03;24.10;51.90
63371;DHT22;49504;48.336;14.472;2023-05-18T07:32:25;24.00;51.90
63371;DHT22;49504;48.336;14.472;2023-05-18T07:35:47;24.10;51.90
63371;DHT22;49504;48.336;14.472;2023-05-18T07:39:09;24.10;52.00
63371;DHT22;49504;48.336;14.472;2023-05-18T07:42:32;24.00;51.90
63371;DHT22;49504;48.336;14.472;2023-05-18T07:45:53;24.00;51.90
63371;DHT22;49504;48.336;14.472;2023-05-18T07:49:14;24.10;51.90
63371;DHT22;49504;48.336;14.472;2023-05-18T07:52:53;24.10;51.40
63371;DHT22;49504;48.336;14.472;2023-05-18T07:56:15;24.00;51.90
63371;DHT22;49504;48.336;14.472;2023-05-18T07:59:36;24.10;52.00
63371;DHT22;49504;48.336;14.472;2023-05-18T08:02:58;24.00;51.80
63371;DHT22;49504;48.336;14.472;2023-05-18T08:06:19;24.10;51.80
63371;DHT22;49504;48.336;14.472;2023-05-18T08:09:42;24.00;51.80
63371;DHT22;49504;48.336;14.472;2023-05-18T08:13:03;24.10;51.90
63371;DHT22;49504;48.336;14.472;2023-05-18T08:19:02;24.00;51.20
63371;DHT22;49504;48.336;14.472;2023-05-18T08:22:23;24.10;51.60
63371;DHT22;49504;48.336;14.472;2023-05-18T08:25:45;24.10;51.60
63371;DHT22;49504;48.336;14.472;2023-05-18T08:29:06;24.10;51.70
63371;DHT22;49504;48.336;14.472;2023-05-18T08:32:27;24.00;51.70
63371;DHT22;49504;48.336;14.472;2023-05-18T08:37:14;24.10;51.20
63371;DHT22;49504;48.336;14.472;2023-05-18T08:40:40;24.10;51.70
63371;DHT22;49504;48.336;14.472;2023-05-18T08:44:09;24.10;51.40
63371;DHT22;49504;48.336;14.472;2023-05-18T08:47:36;24.10;51.40
63371;DHT22;49504;48.336;14.472;2023-05-18T08:53:05;24.10;51.10
63371;DHT22;49504;48.336;14.472;2023-05-18T08:56:26;24.10;51.50
63371;DHT22;49504;48.336;14.472;2023-05-18T08:59:52;24.10;51.50
63371;DHT22;49504;48.336;14.472;2023-05-18T09:05:40;24.00;51.00
63371;DHT22;49504;48.336;14.472;2023-05-18T09:09:01;24.10;51.50
63371;DHT22;49504;48.336;14.472;2023-05-18T09:12:23;24.10;51.60
63371;DHT22;49504;48.336;14.472;2023-05-18T09:17:32;24.00;51.00
63371;DHT22;49504;48.336;14.472;2023-05-18T09:20:53;24.10;51.60
63371;DHT22;49504;48.336;14.472;2023-05-18T09:24:14;24.10;51.60
63371;DHT22;49504;48.336;14.472;2023-05-18T09:27:35;24.10;51.40
63371;DHT22;49504;48.336;14.472;2023-05-18T09:30:57;24.10;51.40
63371;DHT22;49504;48.336;14.472;2023-05-18T09:34:19;24.10;51.30
63371;DHT22;49504;48.336;14.472;2023-05-18T09:37:41;24.10;51.20
63371;DHT22;49504;48.336;14.472;2023-05-18T09:41:02;24.10;51.40
63371;DHT22;49504;48.336;14.472;2023-05-18T09:44:30;24.10;51.50
63371;DHT22;49504;48.336;14.472;2023-05-18T09:50:33;24.10;50.90
63371;DHT22;49504;48.336;14.472;2023-05-18T09:53:55;24.20;51.20
63371;DHT22;49504;48.336;14.472;2023-05-18T09:57:19;24.20;51.00
63371;DHT22;49504;48.336;14.472;2023-05-18T10:00:41;24.10;50.90
63371;DHT22;49504;48.336;14.472;2023-05-18T10:04:03;24.10;50.90
63371;DHT22;49504;48.336;14.472;2023-05-18T10:07:26;24.10;50.90
63371;DHT22;49504;48.336;14.472;2023-05-18T10:10:48;24.10;51.00
63371;DHT22;49504;48.336;14.472;2023-05-18T10:14:10;24.10;51.00
63371;DHT22;49504;48.336;14.472;2023-05-18T10:17:31;24.10;50.90
63371;DHT22;49504;48.336;14.472;2023-05-18T10:20:54;24.10;50.90
63371;DHT22;49504;48.336;14.472;2023-05-18T10:24:20;24.20;51.10
63371;DHT22;49504;48.336;14.472;2023-05-18T10:27:43;24.10;50.80
63371;DHT22;49504;48.336;14.472;2023-05-18T10:31:05;24.20;50.90
63371;DHT22;49504;48.336;14.472;2023-05-18T10:34:28;24.20;51.10
63371;DHT22;49504;48.336;14.472;2023-05-18T10:37:50;24.20;51.10
63371;DHT22;49504;48.336;14.472;2023-05-18T10:41:17;24.20;51.30
63371;DHT22;49504;48.336;14.472;2023-05-18T10:44:38;24.20;51.20
63371;DHT22;49504;48.336;14.472;2023-05-18T10:48:01;24.10;51.30
63371;DHT22;49504;48.336;14.472;2023-05-18T10:51:25;24.20;51.30
63371;DHT22;49504;48.336;14.472;2023-05-18T10:54:49;24.20;51.30
63371;DHT22;49504;48.336;14.472;2023-05-18T10:58:14;24.10;51.10
63371;DHT22;49504;48.336;14.472;2023-05-18T11:01:38;24.20;51.20
63371;DHT22;49504;48.336;14.472;2023-05-18T11:05:04;24.20;51.50
63371;DHT22;49504;48.336;14.472;2023-05-18T11:08:26;24.20;51.60
63371;DHT22;49504;48.336;14.472;2023-05-18T11:11:51;24.20;51.60
63371;DHT22;49504;48.336;14.472;2023-05-18T11:15:14;24.20;51.80
63371;DHT22;49504;48.336;14.472;2023-05-18T11:18:43;24.20;51.50
63371;DHT22;49504;48.336;14.472;2023-05-18T11:22:11;24.20;51.60
63371;DHT22;49504;48.336;14.472;2023-05-18T11:25:52;24.20;51.50
63371;DHT22;49504;48.336;14.472;2023-05-18T11:29:18;24.20;51.30
63371;DHT22;49504;48.336;14.472;2023-05-18T11:32:49;24.10;51.00
63371;DHT22;49504;48.336;14.472;2023-05-18T11:36:11;24.20;51.20
63371;DHT22;49504;48.336;14.472;2023-05-18T11:39:32;24.20;51.20
63371;DHT22;49504;48.336;14.472;2023-05-18T11:42:57;24.20;50.70
63371;DHT22;49504;48.336;14.472;2023-05-18T11:50:22;24.10;50.30
63371;DHT22;49504;48.336;14.472;2023-05-18T11:53:43;24.20;50.70
63371;DHT22;49504;48.336;14.472;2023-05-18T11:57:41;24.20;50.50
63371;DHT22;49504;48.336;14.472;2023-05-18T12:01:04;24.10;50.90
63371;DHT22;49504;48.336;14.472;2023-05-18T12:04:26;24.20;51.10
63371;DHT22;49504;48.336;14.472;2023-05-18T12:07:51;24.20;51.00
63371;DHT22;49504;48.336;14.472;2023-05-18T12:11:13;24.20;50.90
63371;DHT22;49504;48.336;14.472;2023-05-18T12:14:37;24.20;51.10
63371;DHT22;49504;48.336;14.472;2023-05-18T12:17:59;24.20;51.00
63371;DHT22;49504;48.336;14.472;2023-05-18T12:21:21;24.20;51.00
63371;DHT22;49504;48.336;14.472;2023-05-18T12:24:43;24.10;50.40
63371;DHT22;49504;48.336;14.472;2023-05-18T12:28:05;24.20;49.70
63371;DHT22;49504;48.336;14.472;2023-05-18T12:31:30;24.20;50.20
63371;DHT22;49504;48.336;14.472;2023-05-18T12:34:51;24.20;50.20
63371;DHT22;49504;48.336;14.472;2023-05-18T12:38:16;24.20;50.10
63371;DHT22;49504;48.336;14.472;2023-05-18T12:41:37;24.20;50.10
63371;DHT22;49504;48.336;14.472;2023-05-18T12:44:59;24.20;50.20
63371;DHT22;49504;48.336;14.472;2023-05-18T12:48:22;24.20;50.30
63371;DHT22;49504;48.336;14.472;2023-05-18T12:53:41;24.20;50.00
63371;DHT22;49504;48.336;14.472;2023-05-18T12:57:05;24.20;50.60
63371;DHT22;49504;48.336;14.472;2023-05-18T13:00:26;24.20;50.40
63371;DHT22;49504;48.336;14.472;2023-05-18T13:03:54;24.20;50.40
63371;DHT22;49504;48.336;14.472;2023-05-18T13:07:15;24.20;50.40
63371;DHT22;49504;48.336;14.472;2023-05-18T13:10:38;24.20;50.40
63371;DHT22;49504;48.336;14.472;2023-05-18T13:14:04;24.20;50.50
63371;DHT22;49504;48.336;14.472;2023-05-18T13:17:26;24.20;50.60
63371;DHT22;49504;48.336;14.472;2023-05-18T13:20:49;24.20;50.20
63371;DHT22;49504;48.336;14.472;2023-05-18T13:24:12;24.20;50.20
63371;DHT22;49504;48.336;14.472;2023-05-18T13:27:34;24.20;50.20
63371;DHT22;49504;48.336;14.472;2023-05-18T13:30:56;24.20;50.30
63371;DHT22;49504;48.336;14.472;2023-05-18T13:34:17;24.20;50.30
63371;DHT22;49504;48.336;14.472;2023-05-18T13:37:38;24.20;50.40
63371;DHT22;49504;48.336;14.472;2023-05-18T13:41:00;24.20;50.40
63371;DHT22;49504;48.336;14.472;2023-05-18T13:44:22;24.20;50.40
63371;DHT22;49504;48.336;14.472;2023-05-18T13:47:44;24.20;50.40
63371;DHT22;49504;48.336;14.472;2023-05-18T13:51:06;24.20;50.50
63371;DHT22;49504;48.336;14.472;2023-05-18T13:54:28;24.20;50.50
63371;DHT22;49504;48.336;14.472;2023-05-18T13:57:49;24.20;50.50
63371;DHT22;49504;48.336;14.472;2023-05-18T14:01:12;24.20;50.50
63371;DHT22;49504;48.336;14.472;2023-05-18T14:04:33;24.20;50.50
63371;DHT22;49504;48.336;14.472;2023-05-18T14:07:54;24.20;50.50
63371;DHT22;49504;48.336;14.472;2023-05-18T14:11:15;24.20;50.50
63371;DHT22;49504;48.336;14.472;2023-05-18T14:14:39;24.20;50.80
63371;DHT22;49504;48.336;14.472;2023-05-18T17:04:44;24.30;50.40
63371;DHT22;49504;48.336;14.472;2023-05-18T17:10:05;24.60;51.30
63371;DHT22;49504;48.336;14.472;2023-05-18T17:13:26;24.60;51.90
63371;DHT22;49504;48.336;14.472;2023-05-18T17:16:48;24.70;51.70
63371;DHT22;49504;48.336;14.472;2023-05-18T17:20:10;24.60;51.30
63371;DHT22;49504;48.336;14.472;2023-05-18T17:23:31;24.60;51.50
63371;DHT22;49504;48.336;14.472;2023-05-18T17:26:54;24.60;51.70
63371;DHT22;49504;48.336;14.472;2023-05-18T17:30:15;24.60;51.80
63371;DHT22;49504;48.336;14.472;2023-05-18T17:33:36;24.60;51.90
63371;DHT22;49504;48.336;14.472;2023-05-18T17:36:58;24.60;51.70
63371;DHT22;49504;48.336;14.472;2023-05-18T17:40:19;24.60;51.70
63371;DHT22;49504;48.336;14.472;2023-05-18T17:45:01;24.60;51.10
63371;DHT22;49504;48.336;14.472;2023-05-18T17:48:23;24.60;51.70
63371;DHT22;49504;48.336;14.472;2023-05-18T17:53:13;24.50;51.00
63371;DHT22;49504;48.336;14.472;2023-05-18T17:56:34;24.60;52.00
63371;DHT22;49504;48.336;14.472;2023-05-18T18:02:57;24.50;51.20
63371;DHT22;49504;48.336;14.472;2023-05-18T18:06:18;24.50;52.10
63371;DHT22;49504;48.336;14.472;2023-05-18T18:09:40;24.60;52.10
63371;DHT22;49504;48.336;14.472;2023-05-18T18:13:01;24.50;51.60
63371;DHT22;49504;48.336;14.472;2023-05-18T18:16:22;24.50;51.60
63371;DHT22;49504;48.336;14.472;2023-05-18T18:19:46;24.50;51.50
63371;DHT22;49504;48.336;14.472;2023-05-18T18:23:07;24.50;52.20
63371;DHT22;49504;48.336;14.472;2023-05-18T18:26:29;24.50;52.00
63371;DHT22;49504;48.336;14.472;2023-05-18T18:29:51;24.50;51.90
63371;DHT22;49504;48.336;14.472;2023-05-18T18:33:12;24.50;51.80
63371;DHT22;49504;48.336;14.472;2023-05-18T18:39:04;24.50;51.10
63371;DHT22;49504;48.336;14.472;2023-05-18T18:42:25;24.50;51.50
63371;DHT22;49504;48.336;14.472;2023-05-18T18:45:47;24.50;51.40
63371;DHT22;49504;48.336;14.472;2023-05-18T18:49:42;24.50;51.00
63371;DHT22;49504;48.336;14.472;2023-05-18T18:53:03;24.50;51.80
63371;DHT22;49504;48.336;14.472;2023-05-18T18:56:25;24.50;52.00
63371;DHT22;49504;48.336;14.472;2023-05-18T18:59:46;24.50;52.00
63371;DHT22;49504;48.336;14.472;2023-05-18T19:03:07;24.50;52.40
63371;DHT22;49504;48.336;14.472;2023-05-18T19:06:37;24.50;52.60
63371;DHT22;49504;48.336;14.472;2023-05-18T19:09:58;24.50;52.50
63371;DHT22;49504;48.336;14.472;2023-05-18T19:13:19;24.50;52.00
63371;DHT22;49504;48.336;14.472;2023-05-18T19:16:41;24.50;52.00
63371;DHT22;49504;48.336;14.472;2023-05-18T19:20:03;24.50;51.90
63371;DHT22;49504;48.336;14.472;2023-05-18T19:25:00;24.50;51.40
63371;DHT22;49504;48.336;14.472;2023-05-18T19:28:21;24.50;52.10
63371;DHT22;49504;48.336;14.472;2023-05-18T19:31:42;24.50;51.80
63371;DHT22;49504;48.336;14.472;2023-05-18T19:37:28;24.50;51.20
63371;DHT22;49504;48.336;14.472;2023-05-18T19:40:49;24.50;52.00
63371;DHT22;49504;48.336;14.472;2023-05-18T19:44:11;24.50;51.90
63371;DHT22;49504;48.336;14.472;2023-05-18T19:47:32;24.50;51.60
63371;DHT22;49504;48.336;14.472;2023-05-18T19:50:53;24.50;51.70
63371;DHT22;49504;48.336;14.472;2023-05-18T19:54:16;24.50;51.70
63371;DHT22;49504;48.336;14.472;2023-05-18T19:57:37;24.50;51.60
63371;DHT22;49504;48.336;14.472;2023-05-18T20:00:58;24.50;51.70
63371;DHT22;49504;48.336;14.472;2023-05-18T20:04:19;24.50;51.60
63371;DHT22;49504;48.336;14.472;2023-05-18T20:07:40;24.50;51.80
63371;DHT22;49504;48.336;14.472;2023-05-18T20:11:03;24.50;51.80
63371;DHT22;49504;48.336;14.472;2023-05-18T20:14:24;24.50;51.80
63371;DHT22;49504;48.336;14.472;2023-05-18T20:17:45;24.50;51.60
63371;DHT22;49504;48.336;14.472;2023-05-18T20:21:06;24.50;51.50
63371;DHT22;49504;48.336;14.472;2023-05-18T20:24:27;24.50;51.40
63371;DHT22;49504;48.336;14.472;2023-05-18T20:27:50;24.50;51.40
63371;DHT22;49504;48.336;14.472;2023-05-18T20:31:11;24.50;51.30
63371;DHT22;49504;48.336;14.472;2023-05-18T20:34:32;24.50;51.20
63371;DHT22;49504;48.336;14.472;2023-05-18T20:37:53;24.50;51.30
63371;DHT22;49504;48.336;14.472;2023-05-18T20:41:15;24.50;51.30
63371;DHT22;49504;48.336;14.472;2023-05-18T20:44:37;24.50;51.20
63371;DHT22;49504;48.336;14.472;2023-05-18T20:47:58;24.50;51.20
63371;DHT22;49504;48.336;14.472;2023-05-18T20:51:19;24.50;51.20
63371;DHT22;49504;48.336;14.472;2023-05-18T20:54:41;24.50;51.30
63371;DHT22;49504;48.336;14.472;2023-05-18T20:58:03;24.50;51.20
63371;DHT22;49504;48.336;14.472;2023-05-18T21:01:25;24.40;51.20
63371;DHT22;49504;48.336;14.472;2023-05-18T21:04:46;24.50;51.20
63371;DHT22;49504;48.336;14.472;2023-05-18T21:08:07;24.50;51.30
63371;DHT22;49504;48.336;14.472;2023-05-18T21:11:29;24.50;51.20
63371;DHT22;49504;48.336;14.472;2023-05-18T21:14:50;24.40;51.20
63371;DHT22;49504;48.336;14.472;2023-05-18T21:18:12;24.50;51.30
63371;DHT22;49504;48.336;14.472;2023-05-18T21:21:33;24.50;51.20
63371;DHT22;49504;48.336;14.472;2023-05-18T21:24:55;24.50;51.20
63371;DHT22;49504;48.336;14.472;2023-05-18T21:30:48;24.40;50.60
63371;DHT22;49504;48.336;14.472;2023-05-18T21:34:09;24.50;51.30
63371;DHT22;49504;48.336;14.472;2023-05-18T21:37:30;24.50;51.90
63371;DHT22;49504;48.336;14.472;2023-05-18T21:40:53;24.50;51.20
63371;DHT22;49504;48.336;14.472;2023-05-18T21:44:14;24.40;51.20
63371;DHT22;49504;48.336;14.472;2023-05-18T21:47:37;24.40;51.50
63371;DHT22;49504;48.336;14.472;2023-05-18T21:50:58;24.50;51.60
63371;DHT22;49504;48.336;14.472;2023-05-18T21:54:20;24.40;51.40
63371;DHT22;49504;48.336;14.472;2023-05-18T21:57:41;24.40;51.40
63371;DHT22;49504;48.336;14.472;2023-05-18T22:01:02;24.30;51.40
63371;DHT22;49504;48.336;14.472;2023-05-18T22:04:24;24.50;51.50
63371;DHT22;49504;48.336;14.472;2023-05-18T22:07:46;24.50;51.40
63371;DHT22;49504;48.336;14.472;2023-05-18T22:11:59;24.40;50.80
63371;DHT22;49504;48.336;14.472;2023-05-18T22:15:20;24.40;51.40
63371;DHT22;49504;48.336;14.472;2023-05-18T22:18:41;24.40;51.40
63371;DHT22;49504;48.336;14.472;2023-05-18T22:22:02;24.40;51.20
63371;DHT22;49504;48.336;14.472;2023-05-18T22:25:23;24.40;51.20
63371;DHT22;49504;48.336;14.472;2023-05-18T22:28:46;24.40;51.30
63371;DHT22;49504;48.336;14.472;2023-05-18T22:32:07;24.40;51.20
63371;DHT22;49504;48.336;14.472;2023-05-18T22:35:29;24.40;51.30
63371;DHT22;49504;48.336;14.472;2023-05-18T22:41:32;24.40;50.80
63371;DHT22;49504;48.336;14.472;2023-05-18T22:44:53;24.40;51.30
63371;DHT22;49504;48.336;14.472;2023-05-18T22:48:14;24.40;51.20
63371;DHT22;49504;48.336;14.472;2023-05-18T22:51:35;24.40;51.20
63371;DHT22;49504;48.336;14.472;2023-05-18T22:54:56;24.40;51.30
63371;DHT22;49504;48.336;14.472;2023-05-18T22:58:19;24.40;51.40
63371;DHT22;49504;48.336;14.472;2023-05-18T23:01:40;24.40;51.40
63371;DHT22;49504;48.336;14.472;2023-05-18T23:05:01;24.50;51.40
63371;DHT22;49504;48.336;14.472;2023-05-18T23:08:22;24.40;51.20
63371;DHT22;49504;48.336;14.472;2023-05-18T23:11:43;24.40;51.20
63371;DHT22;49504;48.336;14.472;2023-05-18T23:15:07;24.40;51.20
63371;DHT22;49504;48.336;14.472;2023-05-18T23:18:46;24.40;50.70
63371;DHT22;49504;48.336;14.472;2023-05-18T23:22:07;24.40;51.20
63371;DHT22;49504;48.336;14.472;2023-05-18T23:25:29;24.40;51.20
63371;DHT22;49504;48.336;14.472;2023-05-18T23:28:50;24.40;51.20
63371;DHT22;49504;48.336;14.472;2023-05-18T23:32:11;24.40;51.30
63371;DHT22;49504;48.336;14.472;2023-05-18T23:35:34;24.40;51.20
63371;DHT22;49504;48.336;14.472;2023-05-18T23:38:56;24.40;51.20
63371;DHT22;49504;48.336;14.472;2023-05-18T23:42:18;24.40;51.30
63371;DHT22;49504;48.336;14.472;2023-05-18T23:45:40;24.40;51.30
63371;DHT22;49504;48.336;14.472;2023-05-18T23:49:02;24.40;51.20
63371;DHT22;49504;48.336;14.472;2023-05-18T23:52:25;24.40;51.30
63371;DHT22;49504;48.336;14.472;2023-05-18T23:55:47;24.40;51.30
63371;DHT22;49504;48.336;14.472;2023-05-18T23:59:10;24.40;51.30
